Portada
METAR-TAF:

METAR-TAF

Aeropuertos :

Ghriss, Argelia

latitud: 35-12N, longitud: 000-08E, altitud: 514 m

Observación

El informe se hizo hace 48 minutos, a las 20:00 UTC
Viento 8 kt del norte-noreste
Temperatura 15°C
Humedad 72%
Presión 1021 hPa
Visibilidad 10 km o más
Escasas nubes a una altura de 2300 ft, Cumulonimbus.

METAR: DAOV 142000Z 02008KT 9999 FEW023CB 15/10 Q1021

Hora: 21:48 (20:48 UTC)

Pronóstico

El informe se hizo hace 3 horas y 48 minutos, a las 17:00 UTC
Pronóstico válido del 14 a las 18 UTC al 15 a las 03 UTC
Viento 15 kt del norte
Visibilidad 10 km o más
Escasas nubes a una altura de 2000 ft
Nubes dispersas a una altura de 2600 ft
Evolucionando progresivamente
del 14 a las 21 UTC al 14 a las 24 UTC
Viento 2 kt con dirección variable
Nubes dispersas a una altura de 1300 ft

TAF: DAOV 141700Z 1418/1503 35015KT 9999 FEW020 SCT026 BECMG 1421/1424 VRB02KT SCT013

Observaciones y pronósticos meteorológicos de más de 4000 aeropuertos (mensajes METAR y TAF).

Los puntos amarillos y rojos representan las estaciones disponibles.

Ponga el ratón en el punto deseado para ver el nombre de la estación.

Haga clic para ver las observaciones y los pronósticos meteorológicos.

Para cambiar el mapa : haga clic en los botones verdes con una cruz de color negro para hacer un zoom, en el botón verde con un guión para alejar o en las flechas verdes para mapas adyacentes.


METAR-TAF: